sensor_id;sensor_type;location;lat;lon;timestamp;temperature;humidity
22852;DHT22;11592;45.460;9.240;2023-03-15T00:01:51;13.60;63.60
22852;DHT22;11592;45.460;9.240;2023-03-15T00:04:18;13.60;63.50
22852;DHT22;11592;45.460;9.240;2023-03-15T00:06:44;13.60;63.00
22852;DHT22;11592;45.460;9.240;2023-03-15T00:09:11;13.60;62.50
22852;DHT22;11592;45.460;9.240;2023-03-15T00:11:38;13.60;62.30
22852;DHT22;11592;45.460;9.240;2023-03-15T00:14:05;13.60;62.30
22852;DHT22;11592;45.460;9.240;2023-03-15T00:16:32;13.60;61.80
22852;DHT22;11592;45.460;9.240;2023-03-15T00:18:59;13.60;62.50
22852;DHT22;11592;45.460;9.240;2023-03-15T00:21:25;13.60;60.70
22852;DHT22;11592;45.460;9.240;2023-03-15T00:23:55;13.60;61.10
22852;DHT22;11592;45.460;9.240;2023-03-15T00:26:22;13.60;61.00
22852;DHT22;11592;45.460;9.240;2023-03-15T00:28:49;13.70;60.70
22852;DHT22;11592;45.460;9.240;2023-03-15T00:31:18;13.60;60.40
22852;DHT22;11592;45.460;9.240;2023-03-15T00:33:46;13.70;59.90
22852;DHT22;11592;45.460;9.240;2023-03-15T00:36:13;13.70;59.00
22852;DHT22;11592;45.460;9.240;2023-03-15T00:38:41;13.70;58.60
22852;DHT22;11592;45.460;9.240;2023-03-15T00:41:11;13.70;58.20
22852;DHT22;11592;45.460;9.240;2023-03-15T00:43:39;13.60;57.30
22852;DHT22;11592;45.460;9.240;2023-03-15T00:46:06;13.60;56.90
22852;DHT22;11592;45.460;9.240;2023-03-15T00:48:33;13.60;56.60
22852;DHT22;11592;45.460;9.240;2023-03-15T00:51:12;13.70;55.90
22852;DHT22;11592;45.460;9.240;2023-03-15T00:53:41;13.60;55.80
22852;DHT22;11592;45.460;9.240;2023-03-15T00:56:11;13.60;55.30
22852;DHT22;11592;45.460;9.240;2023-03-15T00:58:39;13.70;55.30
22852;DHT22;11592;45.460;9.240;2023-03-15T01:01:17;13.70;54.70
22852;DHT22;11592;45.460;9.240;2023-03-15T01:03:44;13.60;54.60
22852;DHT22;11592;45.460;9.240;2023-03-15T01:06:16;13.60;54.50
22852;DHT22;11592;45.460;9.240;2023-03-15T01:08:43;13.60;55.80
22852;DHT22;11592;45.460;9.240;2023-03-15T01:11:16;13.60;55.20
22852;DHT22;11592;45.460;9.240;2023-03-15T01:13:43;13.50;54.80
22852;DHT22;11592;45.460;9.240;2023-03-15T01:16:12;13.50;54.80
22852;DHT22;11592;45.460;9.240;2023-03-15T01:18:40;13.50;54.70
22852;DHT22;11592;45.460;9.240;2023-03-15T01:21:08;13.50;55.20
22852;DHT22;11592;45.460;9.240;2023-03-15T01:23:35;13.50;54.90
22852;DHT22;11592;45.460;9.240;2023-03-15T01:26:05;13.40;54.60
22852;DHT22;11592;45.460;9.240;2023-03-15T01:28:33;13.30;54.30
22852;DHT22;11592;45.460;9.240;2023-03-15T01:31:00;13.30;55.20
22852;DHT22;11592;45.460;9.240;2023-03-15T01:33:27;13.20;55.30
22852;DHT22;11592;45.460;9.240;2023-03-15T01:36:05;13.20;55.50
22852;DHT22;11592;45.460;9.240;2023-03-15T01:38:33;13.10;55.00
22852;DHT22;11592;45.460;9.240;2023-03-15T01:41:00;13.00;55.60
22852;DHT22;11592;45.460;9.240;2023-03-15T01:43:28;13.10;55.40
22852;DHT22;11592;45.460;9.240;2023-03-15T01:48:47;13.10;55.50
22852;DHT22;11592;45.460;9.240;2023-03-15T01:51:29;13.10;55.60
22852;DHT22;11592;45.460;9.240;2023-03-15T01:54:08;13.10;55.10
22852;DHT22;11592;45.460;9.240;2023-03-15T01:56:40;13.00;54.60
22852;DHT22;11592;45.460;9.240;2023-03-15T01:59:11;13.00;54.40
22852;DHT22;11592;45.460;9.240;2023-03-15T02:01:39;13.00;54.90
22852;DHT22;11592;45.460;9.240;2023-03-15T02:04:16;13.00;56.30
22852;DHT22;11592;45.460;9.240;2023-03-15T02:06:44;13.00;56.50
22852;DHT22;11592;45.460;9.240;2023-03-15T02:09:14;13.00;54.90
22852;DHT22;11592;45.460;9.240;2023-03-15T02:11:44;13.00;55.00
22852;DHT22;11592;45.460;9.240;2023-03-15T02:14:12;12.90;55.20
22852;DHT22;11592;45.460;9.240;2023-03-15T02:16:40;12.90;55.20
22852;DHT22;11592;45.460;9.240;2023-03-15T02:19:11;12.90;55.50
22852;DHT22;11592;45.460;9.240;2023-03-15T02:22:13;12.90;55.40
22852;DHT22;11592;45.460;9.240;2023-03-15T02:25:02;12.90;57.50
22852;DHT22;11592;45.460;9.240;2023-03-15T02:27:32;12.80;57.70
22852;DHT22;11592;45.460;9.240;2023-03-15T02:30:03;12.80;56.40
22852;DHT22;11592;45.460;9.240;2023-03-15T02:32:31;12.80;55.90
22852;DHT22;11592;45.460;9.240;2023-03-15T02:34:58;12.80;55.30
22852;DHT22;11592;45.460;9.240;2023-03-15T02:37:24;12.80;55.00
22852;DHT22;11592;45.460;9.240;2023-03-15T02:39:51;12.70;54.70
22852;DHT22;11592;45.460;9.240;2023-03-15T02:42:19;12.80;54.60
22852;DHT22;11592;45.460;9.240;2023-03-15T02:44:48;12.80;54.80
22852;DHT22;11592;45.460;9.240;2023-03-15T02:47:23;12.70;55.40
22852;DHT22;11592;45.460;9.240;2023-03-15T02:49:52;12.70;55.70
22852;DHT22;11592;45.460;9.240;2023-03-15T02:52:22;12.60;56.10
22852;DHT22;11592;45.460;9.240;2023-03-15T02:54:49;12.70;56.10
22852;DHT22;11592;45.460;9.240;2023-03-15T02:57:17;12.60;56.40
22852;DHT22;11592;45.460;9.240;2023-03-15T02:59:45;12.50;57.10
22852;DHT22;11592;45.460;9.240;2023-03-15T03:02:12;12.50;56.90
22852;DHT22;11592;45.460;9.240;2023-03-15T03:04:39;12.50;56.70
22852;DHT22;11592;45.460;9.240;2023-03-15T03:07:07;12.50;56.10
22852;DHT22;11592;45.460;9.240;2023-03-15T03:09:34;12.50;55.60
22852;DHT22;11592;45.460;9.240;2023-03-15T03:12:00;12.50;55.40
22852;DHT22;11592;45.460;9.240;2023-03-15T03:14:27;12.60;55.00
22852;DHT22;11592;45.460;9.240;2023-03-15T03:16:54;12.50;55.20
22852;DHT22;11592;45.460;9.240;2023-03-15T03:19:21;12.60;55.10
22852;DHT22;11592;45.460;9.240;2023-03-15T03:21:52;12.60;54.70
22852;DHT22;11592;45.460;9.240;2023-03-15T03:24:19;12.60;54.70
22852;DHT22;11592;45.460;9.240;2023-03-15T03:26:47;12.60;55.00
22852;DHT22;11592;45.460;9.240;2023-03-15T03:29:14;12.70;55.10
22852;DHT22;11592;45.460;9.240;2023-03-15T03:31:43;12.60;55.00
22852;DHT22;11592;45.460;9.240;2023-03-15T03:34:10;12.60;55.30
22852;DHT22;11592;45.460;9.240;2023-03-15T03:36:41;12.60;55.20
22852;DHT22;11592;45.460;9.240;2023-03-15T03:39:09;12.60;54.90
22852;DHT22;11592;45.460;9.240;2023-03-15T03:41:36;12.60;55.00
22852;DHT22;11592;45.460;9.240;2023-03-15T03:44:03;12.60;54.90
22852;DHT22;11592;45.460;9.240;2023-03-15T03:46:30;12.60;54.90
22852;DHT22;11592;45.460;9.240;2023-03-15T03:48:57;12.60;55.10
22852;DHT22;11592;45.460;9.240;2023-03-15T03:51:24;12.60;55.10
22852;DHT22;11592;45.460;9.240;2023-03-15T03:53:51;12.60;54.90
22852;DHT22;11592;45.460;9.240;2023-03-15T03:56:18;12.50;55.10
22852;DHT22;11592;45.460;9.240;2023-03-15T03:58:45;12.50;55.30
22852;DHT22;11592;45.460;9.240;2023-03-15T04:01:11;12.60;56.20
22852;DHT22;11592;45.460;9.240;2023-03-15T04:03:38;12.60;56.20
22852;DHT22;11592;45.460;9.240;2023-03-15T04:06:05;12.50;55.50
22852;DHT22;11592;45.460;9.240;2023-03-15T04:08:32;12.50;55.40
22852;DHT22;11592;45.460;9.240;2023-03-15T04:10:58;12.50;55.60
22852;DHT22;11592;45.460;9.240;2023-03-15T04:13:25;12.50;55.80
22852;DHT22;11592;45.460;9.240;2023-03-15T04:15:52;12.50;56.50
22852;DHT22;11592;45.460;9.240;2023-03-15T04:18:23;12.50;56.60
22852;DHT22;11592;45.460;9.240;2023-03-15T04:20:50;12.40;56.60
22852;DHT22;11592;45.460;9.240;2023-03-15T04:23:22;12.40;56.70
22852;DHT22;11592;45.460;9.240;2023-03-15T04:25:51;12.40;57.00
22852;DHT22;11592;45.460;9.240;2023-03-15T04:28:18;12.30;56.60
22852;DHT22;11592;45.460;9.240;2023-03-15T04:30:47;12.30;56.90
22852;DHT22;11592;45.460;9.240;2023-03-15T04:33:14;12.30;57.20
22852;DHT22;11592;45.460;9.240;2023-03-15T04:35:41;12.40;57.40
22852;DHT22;11592;45.460;9.240;2023-03-15T04:38:08;12.30;57.20
22852;DHT22;11592;45.460;9.240;2023-03-15T04:40:35;12.30;57.60
22852;DHT22;11592;45.460;9.240;2023-03-15T04:43:04;12.30;57.70
22852;DHT22;11592;45.460;9.240;2023-03-15T04:45:31;12.30;57.80
22852;DHT22;11592;45.460;9.240;2023-03-15T04:47:59;12.30;57.80
22852;DHT22;11592;45.460;9.240;2023-03-15T04:50:27;12.20;58.50
22852;DHT22;11592;45.460;9.240;2023-03-15T04:52:56;12.20;58.50
22852;DHT22;11592;45.460;9.240;2023-03-15T04:55:23;12.20;58.70
22852;DHT22;11592;45.460;9.240;2023-03-15T04:57:49;12.20;58.80
22852;DHT22;11592;45.460;9.240;2023-03-15T05:00:16;12.20;58.70
22852;DHT22;11592;45.460;9.240;2023-03-15T05:02:43;12.20;58.80
22852;DHT22;11592;45.460;9.240;2023-03-15T05:05:11;12.20;58.80
22852;DHT22;11592;45.460;9.240;2023-03-15T05:07:38;12.20;58.90
22852;DHT22;11592;45.460;9.240;2023-03-15T05:10:05;12.20;59.10
22852;DHT22;11592;45.460;9.240;2023-03-15T05:12:32;12.10;59.00
22852;DHT22;11592;45.460;9.240;2023-03-15T05:14:59;12.10;59.30
22852;DHT22;11592;45.460;9.240;2023-03-15T05:17:26;12.10;59.50
22852;DHT22;11592;45.460;9.240;2023-03-15T05:19:53;12.10;59.90
22852;DHT22;11592;45.460;9.240;2023-03-15T05:22:20;12.00;60.00
22852;DHT22;11592;45.460;9.240;2023-03-15T05:24:51;12.00;59.90
22852;DHT22;11592;45.460;9.240;2023-03-15T05:27:19;12.10;59.70
22852;DHT22;11592;45.460;9.240;2023-03-15T05:29:46;12.00;59.60
22852;DHT22;11592;45.460;9.240;2023-03-15T05:32:13;12.00;60.00
22852;DHT22;11592;45.460;9.240;2023-03-15T05:34:40;12.00;59.90
22852;DHT22;11592;45.460;9.240;2023-03-15T05:37:08;12.00;59.20
22852;DHT22;11592;45.460;9.240;2023-03-15T05:39:35;12.00;58.80
22852;DHT22;11592;45.460;9.240;2023-03-15T05:42:01;11.90;58.50
22852;DHT22;11592;45.460;9.240;2023-03-15T05:44:28;11.90;58.40
22852;DHT22;11592;45.460;9.240;2023-03-15T05:46:55;12.00;58.60
22852;DHT22;11592;45.460;9.240;2023-03-15T05:49:22;12.00;58.20
22852;DHT22;11592;45.460;9.240;2023-03-15T05:51:48;12.00;57.90
22852;DHT22;11592;45.460;9.240;2023-03-15T05:54:15;12.00;57.50
22852;DHT22;11592;45.460;9.240;2023-03-15T05:56:42;12.00;57.00
22852;DHT22;11592;45.460;9.240;2023-03-15T05:59:08;12.00;56.80
22852;DHT22;11592;45.460;9.240;2023-03-15T06:01:35;12.00;56.90
22852;DHT22;11592;45.460;9.240;2023-03-15T06:04:02;12.10;57.10
22852;DHT22;11592;45.460;9.240;2023-03-15T06:06:29;12.00;56.50
22852;DHT22;11592;45.460;9.240;2023-03-15T06:08:59;12.00;55.00
22852;DHT22;11592;45.460;9.240;2023-03-15T06:11:26;12.00;53.50
22852;DHT22;11592;45.460;9.240;2023-03-15T06:13:53;12.00;51.50
22852;DHT22;11592;45.460;9.240;2023-03-15T06:16:19;12.00;50.00
22852;DHT22;11592;45.460;9.240;2023-03-15T06:18:46;12.00;48.60
22852;DHT22;11592;45.460;9.240;2023-03-15T06:21:13;12.00;48.40
22852;DHT22;11592;45.460;9.240;2023-03-15T06:23:40;12.10;48.10
22852;DHT22;11592;45.460;9.240;2023-03-15T06:26:07;12.10;47.90
22852;DHT22;11592;45.460;9.240;2023-03-15T06:28:33;12.10;46.90
22852;DHT22;11592;45.460;9.240;2023-03-15T06:31:07;12.20;46.40
22852;DHT22;11592;45.460;9.240;2023-03-15T06:33:34;12.20;46.50
22852;DHT22;11592;45.460;9.240;2023-03-15T06:36:01;12.30;46.50
22852;DHT22;11592;45.460;9.240;2023-03-15T06:38:28;12.20;46.20
22852;DHT22;11592;45.460;9.240;2023-03-15T06:40:57;12.20;46.30
22852;DHT22;11592;45.460;9.240;2023-03-15T06:43:27;12.20;46.30
22852;DHT22;11592;45.460;9.240;2023-03-15T06:45:53;12.30;46.20
22852;DHT22;11592;45.460;9.240;2023-03-15T06:48:22;12.30;45.70
22852;DHT22;11592;45.460;9.240;2023-03-15T06:50:48;12.30;44.30
22852;DHT22;11592;45.460;9.240;2023-03-15T06:53:15;12.30;44.10
22852;DHT22;11592;45.460;9.240;2023-03-15T06:55:44;12.40;43.20
22852;DHT22;11592;45.460;9.240;2023-03-15T06:58:12;12.40;42.60
22852;DHT22;11592;45.460;9.240;2023-03-15T07:00:39;12.40;41.70
22852;DHT22;11592;45.460;9.240;2023-03-15T07:03:06;12.40;43.00
22852;DHT22;11592;45.460;9.240;2023-03-15T07:05:33;12.50;43.00
22852;DHT22;11592;45.460;9.240;2023-03-15T07:08:00;12.50;42.30
22852;DHT22;11592;45.460;9.240;2023-03-15T07:10:28;12.50;42.40
22852;DHT22;11592;45.460;9.240;2023-03-15T07:12:54;12.60;43.20
22852;DHT22;11592;45.460;9.240;2023-03-15T07:15:21;12.70;43.10
22852;DHT22;11592;45.460;9.240;2023-03-15T07:17:48;12.70;43.20
22852;DHT22;11592;45.460;9.240;2023-03-15T07:20:14;12.70;43.50
22852;DHT22;11592;45.460;9.240;2023-03-15T07:22:41;12.70;44.10
22852;DHT22;11592;45.460;9.240;2023-03-15T07:25:11;12.80;44.60
22852;DHT22;11592;45.460;9.240;2023-03-15T07:27:37;12.80;45.00
22852;DHT22;11592;45.460;9.240;2023-03-15T07:30:05;12.90;45.90
22852;DHT22;11592;45.460;9.240;2023-03-15T07:32:33;12.80;46.70
22852;DHT22;11592;45.460;9.240;2023-03-15T07:35:04;12.80;48.10
22852;DHT22;11592;45.460;9.240;2023-03-15T07:37:31;12.80;49.00
22852;DHT22;11592;45.460;9.240;2023-03-15T07:39:58;12.90;49.50
22852;DHT22;11592;45.460;9.240;2023-03-15T07:42:26;12.90;50.50
22852;DHT22;11592;45.460;9.240;2023-03-15T07:44:53;12.80;49.40
22852;DHT22;11592;45.460;9.240;2023-03-15T07:47:19;12.80;48.30
22852;DHT22;11592;45.460;9.240;2023-03-15T07:49:46;12.80;47.60
22852;DHT22;11592;45.460;9.240;2023-03-15T07:52:13;12.80;47.50
22852;DHT22;11592;45.460;9.240;2023-03-15T07:54:40;12.80;46.60
22852;DHT22;11592;45.460;9.240;2023-03-15T07:57:07;12.70;46.10
22852;DHT22;11592;45.460;9.240;2023-03-15T07:59:33;12.70;45.70
22852;DHT22;11592;45.460;9.240;2023-03-15T08:02:00;12.80;46.30
22852;DHT22;11592;45.460;9.240;2023-03-15T08:04:28;12.80;46.00
22852;DHT22;11592;45.460;9.240;2023-03-15T08:06:56;12.80;45.60
22852;DHT22;11592;45.460;9.240;2023-03-15T08:09:23;12.80;45.70
22852;DHT22;11592;45.460;9.240;2023-03-15T08:11:50;12.90;46.30
22852;DHT22;11592;45.460;9.240;2023-03-15T08:14:17;12.90;46.10
22852;DHT22;11592;45.460;9.240;2023-03-15T08:16:44;12.90;46.00
22852;DHT22;11592;45.460;9.240;2023-03-15T08:19:11;12.90;45.80
22852;DHT22;11592;45.460;9.240;2023-03-15T08:21:37;12.90;44.90
22852;DHT22;11592;45.460;9.240;2023-03-15T08:24:04;12.90;45.10
22852;DHT22;11592;45.460;9.240;2023-03-15T08:26:31;12.90;44.50
22852;DHT22;11592;45.460;9.240;2023-03-15T08:28:58;12.90;43.80
22852;DHT22;11592;45.460;9.240;2023-03-15T08:31:25;12.90;44.40
22852;DHT22;11592;45.460;9.240;2023-03-15T08:33:52;12.90;44.20
22852;DHT22;11592;45.460;9.240;2023-03-15T08:36:20;12.90;43.40
22852;DHT22;11592;45.460;9.240;2023-03-15T08:38:47;13.00;43.20
22852;DHT22;11592;45.460;9.240;2023-03-15T08:41:14;12.90;42.80
22852;DHT22;11592;45.460;9.240;2023-03-15T08:43:40;13.00;42.30
22852;DHT22;11592;45.460;9.240;2023-03-15T08:46:07;13.00;41.30
22852;DHT22;11592;45.460;9.240;2023-03-15T08:48:34;13.10;40.90
22852;DHT22;11592;45.460;9.240;2023-03-15T08:51:05;13.10;41.10
22852;DHT22;11592;45.460;9.240;2023-03-15T08:53:32;13.20;41.50
22852;DHT22;11592;45.460;9.240;2023-03-15T08:55:59;13.10;41.50
22852;DHT22;11592;45.460;9.240;2023-03-15T08:58:26;13.20;41.10
22852;DHT22;11592;45.460;9.240;2023-03-15T09:00:53;13.00;40.40
22852;DHT22;11592;45.460;9.240;2023-03-15T09:03:20;13.10;39.70
22852;DHT22;11592;45.460;9.240;2023-03-15T09:05:48;13.10;39.50
22852;DHT22;11592;45.460;9.240;2023-03-15T09:08:15;13.20;39.00
22852;DHT22;11592;45.460;9.240;2023-03-15T09:10:46;13.20;39.50
22852;DHT22;11592;45.460;9.240;2023-03-15T09:13:13;13.20;40.20
22852;DHT22;11592;45.460;9.240;2023-03-15T09:15:40;13.30;39.10
22852;DHT22;11592;45.460;9.240;2023-03-15T09:18:06;13.30;37.60
22852;DHT22;11592;45.460;9.240;2023-03-15T09:20:33;13.30;37.30
22852;DHT22;11592;45.460;9.240;2023-03-15T09:23:00;13.40;36.90
22852;DHT22;11592;45.460;9.240;2023-03-15T09:25:27;13.40;36.90
22852;DHT22;11592;45.460;9.240;2023-03-15T09:27:54;13.40;35.70
22852;DHT22;11592;45.460;9.240;2023-03-15T09:30:21;13.50;36.60
22852;DHT22;11592;45.460;9.240;2023-03-15T09:32:48;13.50;34.20
22852;DHT22;11592;45.460;9.240;2023-03-15T09:35:17;13.50;33.80
22852;DHT22;11592;45.460;9.240;2023-03-15T09:37:45;13.50;33.40
22852;DHT22;11592;45.460;9.240;2023-03-15T09:40:22;13.60;31.90
22852;DHT22;11592;45.460;9.240;2023-03-15T09:42:56;13.70;31.50
22852;DHT22;11592;45.460;9.240;2023-03-15T09:48:36;13.80;32.70
22852;DHT22;11592;45.460;9.240;2023-03-15T09:51:12;13.80;31.40
22852;DHT22;11592;45.460;9.240;2023-03-15T09:56:43;13.80;30.50
22852;DHT22;11592;45.460;9.240;2023-03-15T09:59:13;13.80;30.50
22852;DHT22;11592;45.460;9.240;2023-03-15T10:01:43;13.70;29.80
22852;DHT22;11592;45.460;9.240;2023-03-15T10:04:30;13.80;29.40
22852;DHT22;11592;45.460;9.240;2023-03-15T10:07:02;13.80;29.70
22852;DHT22;11592;45.460;9.240;2023-03-15T10:09:31;13.90;28.60
22852;DHT22;11592;45.460;9.240;2023-03-15T10:12:09;13.80;28.30
22852;DHT22;11592;45.460;9.240;2023-03-15T10:15:14;13.90;28.00
22852;DHT22;11592;45.460;9.240;2023-03-15T10:17:51;14.00;28.20
22852;DHT22;11592;45.460;9.240;2023-03-15T10:20:26;14.00;27.30
22852;DHT22;11592;45.460;9.240;2023-03-15T10:23:14;14.10;27.60
22852;DHT22;11592;45.460;9.240;2023-03-15T10:25:44;14.20;27.80
22852;DHT22;11592;45.460;9.240;2023-03-15T10:28:28;14.20;27.50
22852;DHT22;11592;45.460;9.240;2023-03-15T10:30:59;14.20;27.10
22852;DHT22;11592;45.460;9.240;2023-03-15T10:33:32;14.30;26.70
22852;DHT22;11592;45.460;9.240;2023-03-15T10:36:01;14.30;27.10
22852;DHT22;11592;45.460;9.240;2023-03-15T10:38:37;14.40;27.10
22852;DHT22;11592;45.460;9.240;2023-03-15T10:41:05;14.60;27.30
22852;DHT22;11592;45.460;9.240;2023-03-15T10:43:34;14.80;26.70
22852;DHT22;11592;45.460;9.240;2023-03-15T10:46:20;15.00;26.10
22852;DHT22;11592;45.460;9.240;2023-03-15T10:51:40;15.30;25.60
22852;DHT22;11592;45.460;9.240;2023-03-15T10:54:38;15.50;26.10
22852;DHT22;11592;45.460;9.240;2023-03-15T10:57:14;15.90;26.00
22852;DHT22;11592;45.460;9.240;2023-03-15T10:59:59;16.10;25.30
22852;DHT22;11592;45.460;9.240;2023-03-15T11:02:32;16.30;25.30
22852;DHT22;11592;45.460;9.240;2023-03-15T11:07:53;17.00;25.80
22852;DHT22;11592;45.460;9.240;2023-03-15T11:10:23;17.40;24.10
22852;DHT22;11592;45.460;9.240;2023-03-15T11:16:17;18.30;23.80
22852;DHT22;11592;45.460;9.240;2023-03-15T11:18:43;18.70;24.00
22852;DHT22;11592;45.460;9.240;2023-03-15T11:21:13;19.40;23.70
22852;DHT22;11592;45.460;9.240;2023-03-15T11:23:45;19.70;23.20
22852;DHT22;11592;45.460;9.240;2023-03-15T11:26:23;20.30;23.80
22852;DHT22;11592;45.460;9.240;2023-03-15T11:29:23;21.00;23.90
22852;DHT22;11592;45.460;9.240;2023-03-15T11:31:51;21.20;20.90
22852;DHT22;11592;45.460;9.240;2023-03-15T11:34:38;21.60;21.30
22852;DHT22;11592;45.460;9.240;2023-03-15T11:37:13;22.10;20.40
22852;DHT22;11592;45.460;9.240;2023-03-15T11:42:49;22.70;19.30
22852;DHT22;11592;45.460;9.240;2023-03-15T11:45:44;23.00;19.10
22852;DHT22;11592;45.460;9.240;2023-03-15T11:48:36;23.10;19.00
22852;DHT22;11592;45.460;9.240;2023-03-15T11:51:07;23.50;18.30
22852;DHT22;11592;45.460;9.240;2023-03-15T11:53:42;23.90;18.30
22852;DHT22;11592;45.460;9.240;2023-03-15T11:56:22;24.60;20.20
22852;DHT22;11592;45.460;9.240;2023-03-15T11:59:08;25.40;18.80
22852;DHT22;11592;45.460;9.240;2023-03-15T12:01:41;25.80;19.90
22852;DHT22;11592;45.460;9.240;2023-03-15T12:06:51;27.80;17.40
22852;DHT22;11592;45.460;9.240;2023-03-15T12:12:33;29.50;17.30
22852;DHT22;11592;45.460;9.240;2023-03-15T12:20:25;32.10;13.60
22852;DHT22;11592;45.460;9.240;2023-03-15T12:22:50;32.60;16.10
22852;DHT22;11592;45.460;9.240;2023-03-15T12:25:31;33.00;15.10
22852;DHT22;11592;45.460;9.240;2023-03-15T12:28:20;33.90;14.00
22852;DHT22;11592;45.460;9.240;2023-03-15T12:30:54;35.10;12.80
22852;DHT22;11592;45.460;9.240;2023-03-15T12:33:22;35.70;11.80
22852;DHT22;11592;45.460;9.240;2023-03-15T12:35:50;35.80;10.90
22852;DHT22;11592;45.460;9.240;2023-03-15T12:38:24;35.60;10.30
22852;DHT22;11592;45.460;9.240;2023-03-15T12:40:57;35.10;10.00
22852;DHT22;11592;45.460;9.240;2023-03-15T12:43:44;35.00;12.50
22852;DHT22;11592;45.460;9.240;2023-03-15T12:51:44;36.90;10.60
22852;DHT22;11592;45.460;9.240;2023-03-15T12:54:20;36.30;12.80
22852;DHT22;11592;45.460;9.240;2023-03-15T12:56:52;36.60;9.40
22852;DHT22;11592;45.460;9.240;2023-03-15T13:02:29;36.10;10.50
22852;DHT22;11592;45.460;9.240;2023-03-15T13:13:22;36.40;9.30
22852;DHT22;11592;45.460;9.240;2023-03-15T13:18:35;36.60;8.40
22852;DHT22;11592;45.460;9.240;2023-03-15T13:21:19;36.80;11.20
22852;DHT22;11592;45.460;9.240;2023-03-15T13:23:51;36.40;9.50
22852;DHT22;11592;45.460;9.240;2023-03-15T13:26:38;36.80;10.50
22852;DHT22;11592;45.460;9.240;2023-03-15T13:29:12;36.90;10.20
22852;DHT22;11592;45.460;9.240;2023-03-15T13:31:40;37.70;8.60
22852;DHT22;11592;45.460;9.240;2023-03-15T13:34:22;38.80;7.00
22852;DHT22;11592;45.460;9.240;2023-03-15T13:36:54;39.30;7.40
22852;DHT22;11592;45.460;9.240;2023-03-15T13:39:24;38.00;8.20
22852;DHT22;11592;45.460;9.240;2023-03-15T13:41:58;37.50;8.70
22852;DHT22;11592;45.460;9.240;2023-03-15T13:44:26;37.30;7.50
22852;DHT22;11592;45.460;9.240;2023-03-15T13:46:54;37.10;9.30
22852;DHT22;11592;45.460;9.240;2023-03-15T13:49:21;36.50;10.50
22852;DHT22;11592;45.460;9.240;2023-03-15T13:51:49;35.60;7.40
22852;DHT22;11592;45.460;9.240;2023-03-15T13:54:29;35.30;9.00
22852;DHT22;11592;45.460;9.240;2023-03-15T14:02:03;35.20;7.00
22852;DHT22;11592;45.460;9.240;2023-03-15T14:04:35;35.10;7.50
22852;DHT22;11592;45.460;9.240;2023-03-15T14:07:39;34.40;7.70
22852;DHT22;11592;45.460;9.240;2023-03-15T14:10:31;33.00;7.80
22852;DHT22;11592;45.460;9.240;2023-03-15T14:12:57;30.50;9.40
22852;DHT22;11592;45.460;9.240;2023-03-15T14:20:43;24.80;12.10
22852;DHT22;11592;45.460;9.240;2023-03-15T14:23:22;23.80;11.20
22852;DHT22;11592;45.460;9.240;2023-03-15T14:28:26;22.80;12.70
22852;DHT22;11592;45.460;9.240;2023-03-15T14:30:55;22.60;12.70
22852;DHT22;11592;45.460;9.240;2023-03-15T14:33:30;22.50;12.00
22852;DHT22;11592;45.460;9.240;2023-03-15T14:36:01;22.30;12.40
22852;DHT22;11592;45.460;9.240;2023-03-15T14:38:37;22.00;12.90
22852;DHT22;11592;45.460;9.240;2023-03-15T14:41:29;21.80;14.10
22852;DHT22;11592;45.460;9.240;2023-03-15T14:43:59;21.60;13.90
22852;DHT22;11592;45.460;9.240;2023-03-15T14:46:27;21.20;14.10
22852;DHT22;11592;45.460;9.240;2023-03-15T14:48:55;21.10;15.00
22852;DHT22;11592;45.460;9.240;2023-03-15T14:51:22;21.00;14.10
22852;DHT22;11592;45.460;9.240;2023-03-15T14:53:53;21.00;15.00
22852;DHT22;11592;45.460;9.240;2023-03-15T14:56:22;21.00;13.80
22852;DHT22;11592;45.460;9.240;2023-03-15T14:58:50;20.90;13.80
22852;DHT22;11592;45.460;9.240;2023-03-15T15:01:23;20.80;14.60
22852;DHT22;11592;45.460;9.240;2023-03-15T15:04:00;20.60;16.10
22852;DHT22;11592;45.460;9.240;2023-03-15T15:06:29;20.20;16.50
22852;DHT22;11592;45.460;9.240;2023-03-15T15:09:03;20.20;16.10
22852;DHT22;11592;45.460;9.240;2023-03-15T15:11:31;20.30;16.10
22852;DHT22;11592;45.460;9.240;2023-03-15T15:13:58;20.30;17.10
22852;DHT22;11592;45.460;9.240;2023-03-15T15:16:25;20.20;15.40
22852;DHT22;11592;45.460;9.240;2023-03-15T15:18:52;20.10;17.60
22852;DHT22;11592;45.460;9.240;2023-03-15T15:21:28;20.20;17.10
22852;DHT22;11592;45.460;9.240;2023-03-15T15:24:01;20.20;16.20
22852;DHT22;11592;45.460;9.240;2023-03-15T15:26:29;20.10;15.10
22852;DHT22;11592;45.460;9.240;2023-03-15T15:28:57;20.10;14.60
22852;DHT22;11592;45.460;9.240;2023-03-15T15:31:25;20.10;16.10
22852;DHT22;11592;45.460;9.240;2023-03-15T15:33:54;20.00;17.30
22852;DHT22;11592;45.460;9.240;2023-03-15T15:36:23;20.00;17.00
22852;DHT22;11592;45.460;9.240;2023-03-15T15:38:50;19.90;16.30
22852;DHT22;11592;45.460;9.240;2023-03-15T15:41:28;19.80;17.90
22852;DHT22;11592;45.460;9.240;2023-03-15T15:43:58;19.70;16.80
22852;DHT22;11592;45.460;9.240;2023-03-15T15:46:25;19.60;17.10
22852;DHT22;11592;45.460;9.240;2023-03-15T15:48:53;19.60;16.80
22852;DHT22;11592;45.460;9.240;2023-03-15T15:51:30;19.60;16.80
22852;DHT22;11592;45.460;9.240;2023-03-15T15:54:00;19.40;17.40
22852;DHT22;11592;45.460;9.240;2023-03-15T15:56:31;19.40;17.20
22852;DHT22;11592;45.460;9.240;2023-03-15T15:59:00;19.40;18.10
22852;DHT22;11592;45.460;9.240;2023-03-15T16:01:30;19.60;17.80
22852;DHT22;11592;45.460;9.240;2023-03-15T16:03:57;21.00;18.10
22852;DHT22;11592;45.460;9.240;2023-03-15T16:06:24;23.40;16.70
22852;DHT22;11592;45.460;9.240;2023-03-15T16:08:52;24.40;15.00
22852;DHT22;11592;45.460;9.240;2023-03-15T16:11:20;25.70;14.40
22852;DHT22;11592;45.460;9.240;2023-03-15T16:13:49;25.20;13.70
22852;DHT22;11592;45.460;9.240;2023-03-15T16:16:18;23.80;14.40
22852;DHT22;11592;45.460;9.240;2023-03-15T16:18:45;22.30;15.60
22852;DHT22;11592;45.460;9.240;2023-03-15T16:21:17;21.10;15.80
22852;DHT22;11592;45.460;9.240;2023-03-15T16:23:56;20.10;16.90
22852;DHT22;11592;45.460;9.240;2023-03-15T16:26:24;19.40;17.00
22852;DHT22;11592;45.460;9.240;2023-03-15T16:28:51;19.00;18.10
22852;DHT22;11592;45.460;9.240;2023-03-15T16:31:20;18.80;18.30
22852;DHT22;11592;45.460;9.240;2023-03-15T16:33:48;18.50;18.70
22852;DHT22;11592;45.460;9.240;2023-03-15T16:36:20;18.30;20.50
22852;DHT22;11592;45.460;9.240;2023-03-15T16:38:47;18.00;20.30
22852;DHT22;11592;45.460;9.240;2023-03-15T16:41:15;17.90;20.30
22852;DHT22;11592;45.460;9.240;2023-03-15T16:43:43;17.70;19.60
22852;DHT22;11592;45.460;9.240;2023-03-15T16:46:13;17.60;20.70
22852;DHT22;11592;45.460;9.240;2023-03-15T16:48:41;17.40;20.00
22852;DHT22;11592;45.460;9.240;2023-03-15T16:51:10;17.30;21.00
22852;DHT22;11592;45.460;9.240;2023-03-15T16:53:38;17.30;20.30
22852;DHT22;11592;45.460;9.240;2023-03-15T16:56:11;17.30;20.10